createdAt,value
2023-01-30T00:01:15.966Z,96698.16
2023-01-30T00:03:43.560Z,96690.75
2023-01-30T00:06:13.036Z,96676.56
2023-01-30T00:08:40.790Z,96679.84
2023-01-30T00:11:10.235Z,96669.84
2023-01-30T00:13:38.485Z,96672.53
2023-01-30T00:16:06.734Z,96653.28
2023-01-30T00:18:34.218Z,96647.81
2023-01-30T00:21:03.977Z,96654.91
2023-01-30T00:23:34.212Z,96663.22
2023-01-30T00:26:02.277Z,96653.53
2023-01-30T00:28:29.839Z,96656.75
2023-01-30T00:30:57.475Z,96649.19
2023-01-30T00:33:26.921Z,96628.94
2023-01-30T00:35:56.328Z,96642.22
2023-01-30T00:38:24.759Z,96629.09
2023-01-30T00:40:53.588Z,96629.63
2023-01-30T00:43:39.692Z,96623.81
2023-01-30T00:46:32.362Z,96620.47
2023-01-30T00:48:59.823Z,96621.63
2023-01-30T00:51:27.352Z,96613.91
2023-01-30T00:53:54.853Z,96606.13
2023-01-30T00:56:23.692Z,96599.66
2023-01-30T00:58:51.134Z,96589.38
2023-01-30T01:01:18.619Z,96590.19
2023-01-30T01:03:46.222Z,96587.53
2023-01-30T01:06:13.820Z,96580.13
2023-01-30T01:08:41.280Z,96572.91
2023-01-30T01:11:08.818Z,96583.34
2023-01-30T01:13:37.610Z,96585.66
2023-01-30T01:16:05.557Z,96573.81
2023-01-30T01:18:33.661Z,96582.81
2023-01-30T01:21:01.126Z,96576.97
2023-01-30T01:23:28.641Z,96581.00
2023-01-30T01:25:56.104Z,96578.63
2023-01-30T01:28:23.569Z,96583.47
2023-01-30T01:30:52.491Z,96595.06
2023-01-30T01:33:19.955Z,96600.53
2023-01-30T01:35:47.980Z,96597.06
2023-01-30T01:38:15.480Z,96607.28
2023-01-30T01:41:06.275Z,96626.56
2023-01-30T01:43:36.282Z,96629.16
2023-01-30T01:46:12.561Z,96631.41
2023-01-30T01:48:44.514Z,96645.41
2023-01-30T01:51:17.214Z,96639.81
2023-01-30T01:53:49.979Z,96639.94
2023-01-30T01:56:20.352Z,96628.34
2023-01-30T01:58:52.547Z,96628.69
2023-01-30T02:01:22.028Z,96613.56
2023-01-30T02:03:53.469Z,96606.25
2023-01-30T02:06:22.768Z,96605.88
2023-01-30T02:08:54.184Z,96599.22
2023-01-30T02:11:30.380Z,96600.78
2023-01-30T02:13:58.832Z,96608.53
2023-01-30T02:16:27.679Z,96605.59
2023-01-30T02:18:55.784Z,96608.63
2023-01-30T02:22:07.642Z,96607.34
2023-01-30T02:24:48.793Z,96598.63
2023-01-30T02:27:26.154Z,96597.59
2023-01-30T02:30:57.867Z,96587.53
2023-01-30T02:33:34.550Z,96578.03
2023-01-30T02:36:09.911Z,96563.97
2023-01-30T02:38:46.780Z,96572.38
2023-01-30T02:41:26.056Z,96565.31
2023-01-30T02:44:04.120Z,96554.94
2023-01-30T02:46:44.127Z,96566.19
2023-01-30T02:49:16.563Z,96560.16
2023-01-30T02:51:45.764Z,96549.38
2023-01-30T02:54:13.903Z,96552.97
2023-01-30T02:56:46.684Z,96549.91
2023-01-30T02:59:17.454Z,96549.22
2023-01-30T03:02:26.739Z,96537.81
2023-01-30T03:05:13.057Z,96534.59
2023-01-30T03:07:48.074Z,96532.66
2023-01-30T03:10:24.863Z,96509.81
2023-01-30T03:12:59.967Z,96481.38
2023-01-30T03:15:34.685Z,96504.22
2023-01-30T03:18:04.304Z,96478.03
2023-01-30T03:20:32.691Z,96439.09
2023-01-30T03:23:00.463Z,96440.19
2023-01-30T03:25:27.994Z,96429.53
2023-01-30T03:27:56.758Z,96486.28
2023-01-30T03:30:26.569Z,96491.63
2023-01-30T03:32:54.063Z,96503.22
2023-01-30T03:35:22.928Z,96490.94
2023-01-30T03:37:50.719Z,96514.88
2023-01-30T03:40:18.896Z,96512.44
2023-01-30T03:42:46.413Z,96520.88
2023-01-30T03:45:14.017Z,96505.56
2023-01-30T03:47:41.471Z,96506.56
2023-01-30T03:50:10.551Z,96482.97
2023-01-30T03:52:39.341Z,96464.34
2023-01-30T03:55:07.853Z,96455.00
2023-01-30T03:57:35.296Z,96458.09
2023-01-30T04:00:02.829Z,96441.50
2023-01-30T04:02:30.326Z,96428.75
2023-01-30T04:04:57.841Z,96414.47
2023-01-30T04:07:25.333Z,96398.44
2023-01-30T04:09:54.217Z,96390.53
2023-01-30T04:12:21.689Z,96392.13
2023-01-30T04:14:49.251Z,96389.16
2023-01-30T04:17:16.718Z,96385.66
2023-01-30T04:19:44.245Z,96399.84
2023-01-30T04:22:11.728Z,96412.88
2023-01-30T04:24:39.198Z,96396.59
2023-01-30T04:27:09.196Z,96394.69
2023-01-30T04:29:36.732Z,96389.59
2023-01-30T04:32:04.410Z,96390.16
2023-01-30T04:34:31.865Z,96384.56
2023-01-30T04:36:59.339Z,96383.97
2023-01-30T04:39:26.817Z,96390.03
2023-01-30T04:41:54.890Z,96398.84
2023-01-30T04:44:23.708Z,96381.56
2023-01-30T04:46:51.166Z,96388.25
2023-01-30T04:49:18.639Z,96389.16
2023-01-30T04:51:46.155Z,96383.47
2023-01-30T04:54:13.801Z,96392.41
2023-01-30T04:56:41.292Z,96398.00
2023-01-30T04:59:08.767Z,96385.47
2023-01-30T05:01:38.944Z,96376.09
2023-01-30T05:04:07.563Z,96391.25
2023-01-30T05:06:36.531Z,96385.47
2023-01-30T05:09:05.057Z,96382.88
2023-01-30T05:11:33.138Z,96381.47
2023-01-30T05:14:00.951Z,96387.44
2023-01-30T05:16:28.697Z,96380.34
2023-01-30T05:18:57.585Z,96385.84
2023-01-30T05:21:27.848Z,96384.94
2023-01-30T05:23:56.442Z,96385.69
2023-01-30T05:26:24.534Z,96395.72
2023-01-30T05:28:53.140Z,96399.47
2023-01-30T05:31:20.673Z,96400.03
2023-01-30T05:33:50.367Z,96397.25
2023-01-30T05:36:21.075Z,96395.28
2023-01-30T05:38:48.526Z,96401.31
2023-01-30T05:41:17.924Z,96397.97
2023-01-30T05:43:45.460Z,96399.81
2023-01-30T05:46:14.192Z,96392.31
2023-01-30T05:48:41.728Z,96384.06
2023-01-30T05:51:17.186Z,96380.25
2023-01-30T05:53:46.317Z,96370.69
2023-01-30T05:56:13.887Z,96364.47
2023-01-30T05:58:41.363Z,96360.19
2023-01-30T06:01:12.663Z,96365.47
2023-01-30T06:03:40.253Z,96361.84
2023-01-30T06:06:08.434Z,96366.97
2023-01-30T06:08:35.900Z,96360.84
2023-01-30T06:11:07.187Z,96361.69
2023-01-30T06:13:35.098Z,96358.59
2023-01-30T06:16:02.616Z,96345.09
2023-01-30T06:18:30.087Z,96341.75
2023-01-30T06:20:57.686Z,96344.09
2023-01-30T06:23:25.345Z,96343.22
2023-01-30T06:25:53.983Z,96346.78
2023-01-30T06:28:24.232Z,96335.06
2023-01-30T06:30:52.363Z,96329.84
2023-01-30T06:33:20.048Z,96335.97
2023-01-30T06:35:50.137Z,96333.84
2023-01-30T06:38:18.025Z,96336.88
2023-01-30T06:40:46.758Z,96330.50
2023-01-30T06:43:14.936Z,96324.78
2023-01-30T06:45:44.332Z,96329.72
2023-01-30T06:48:12.127Z,96321.53
2023-01-30T06:50:39.615Z,96323.03
2023-01-30T06:53:08.685Z,96328.81
2023-01-30T06:55:36.958Z,96339.28
2023-01-30T06:58:06.936Z,96326.81
2023-01-30T07:00:35.354Z,96320.75
2023-01-30T07:03:04.176Z,96321.34
2023-01-30T07:05:31.810Z,96327.38
2023-01-30T07:07:59.303Z,96339.34
2023-01-30T07:10:26.988Z,96338.81
2023-01-30T07:12:54.451Z,96338.59
2023-01-30T07:15:21.947Z,96327.41
2023-01-30T07:17:49.793Z,96334.19
2023-01-30T07:20:19.504Z,96324.53
2023-01-30T07:22:50.910Z,96326.88
2023-01-30T07:25:18.941Z,96317.34
2023-01-30T07:27:52.031Z,96311.81
2023-01-30T07:30:20.115Z,96314.50
2023-01-30T07:32:51.038Z,96310.59
2023-01-30T07:35:20.252Z,96306.00
2023-01-30T07:37:48.587Z,96307.75
2023-01-30T07:40:17.029Z,96297.09
2023-01-30T07:42:44.533Z,96305.81
2023-01-30T07:45:12.718Z,96314.84
2023-01-30T07:47:40.168Z,96317.22
2023-01-30T07:50:09.084Z,96301.69
2023-01-30T07:52:37.879Z,96300.16
2023-01-30T07:55:05.950Z,96293.97
2023-01-30T07:57:33.411Z,96291.44
2023-01-30T08:00:00.905Z,96306.22
2023-01-30T08:02:28.351Z,96303.88
2023-01-30T08:04:55.873Z,96297.34
2023-01-30T08:07:23.448Z,96294.88
2023-01-30T08:09:52.265Z,96307.00
2023-01-30T08:12:19.727Z,96302.41
2023-01-30T08:14:47.397Z,96315.13
2023-01-30T08:17:14.972Z,96319.13
2023-01-30T08:19:42.437Z,96306.56
2023-01-30T08:22:09.885Z,96297.81
2023-01-30T08:24:37.360Z,96299.25
2023-01-30T08:27:06.223Z,96287.75
2023-01-30T08:29:33.799Z,96279.09
2023-01-30T08:32:02.206Z,96267.81
2023-01-30T08:34:29.700Z,96278.66
2023-01-30T08:36:57.169Z,96278.34
2023-01-30T08:39:24.650Z,96266.41
2023-01-30T08:41:52.134Z,96264.34
2023-01-30T08:44:20.969Z,96261.41
2023-01-30T08:46:48.538Z,96267.81
2023-01-30T08:49:16.374Z,96266.97
2023-01-30T08:51:43.808Z,96263.41
2023-01-30T08:54:11.257Z,96262.69
2023-01-30T08:56:38.733Z,96262.63
2023-01-30T08:59:06.883Z,96259.63
2023-01-30T09:01:37.218Z,96257.09
2023-01-30T09:04:04.725Z,96242.72
2023-01-30T09:06:32.223Z,96247.41
2023-01-30T09:08:59.957Z,96231.28
2023-01-30T09:11:27.764Z,96215.38
2023-01-30T09:13:55.238Z,96213.88
2023-01-30T09:16:22.775Z,96217.53
2023-01-30T09:18:51.661Z,96208.41
2023-01-30T09:21:19.373Z,96219.03
2023-01-30T09:23:46.841Z,96211.97
2023-01-30T09:26:14.351Z,96210.28
2023-01-30T09:28:41.915Z,96215.81
2023-01-30T09:31:09.452Z,96222.31
2023-01-30T09:33:36.943Z,96231.38
2023-01-30T09:36:06.724Z,96231.50
2023-01-30T09:38:34.169Z,96230.09
2023-01-30T09:41:14.632Z,96235.41
2023-01-30T09:43:55.940Z,96228.63
2023-01-30T09:46:35.827Z,96228.25
2023-01-30T09:49:18.512Z,96215.69
2023-01-30T09:52:02.201Z,96196.19
2023-01-30T09:54:32.041Z,96210.69
2023-01-30T09:57:20.570Z,96212.16
2023-01-30T10:00:00.682Z,96200.31
2023-01-30T10:02:38.150Z,96213.03
2023-01-30T10:05:06.356Z,96199.28
2023-01-30T10:07:50.026Z,96199.94
2023-01-30T10:10:25.547Z,96190.53
2023-01-30T10:13:04.984Z,96181.50
2023-01-30T10:15:45.812Z,96190.59
2023-01-30T10:18:35.230Z,96188.75
2023-01-30T10:21:16.775Z,96191.19
2023-01-30T10:24:02.440Z,96187.84
2023-01-30T10:26:31.267Z,96174.53
2023-01-30T10:29:07.666Z,96178.41
2023-01-30T10:31:42.051Z,96178.16
2023-01-30T10:34:15.496Z,96173.94
2023-01-30T10:36:47.754Z,96170.81
2023-01-30T10:39:27.075Z,96160.84
2023-01-30T10:41:59.962Z,96154.59
2023-01-30T10:44:27.427Z,96158.66
2023-01-30T10:47:23.037Z,96151.66
2023-01-30T10:49:53.192Z,96147.94
2023-01-30T10:52:35.956Z,96140.94
2023-01-30T10:55:13.364Z,96134.13
2023-01-30T10:57:53.549Z,96131.84
2023-01-30T11:00:29.621Z,96133.75
2023-01-30T11:03:10.645Z,96138.00
2023-01-30T11:05:45.948Z,96146.72
2023-01-30T11:08:20.844Z,96142.59
2023-01-30T11:10:50.112Z,96134.22
2023-01-30T11:13:19.916Z,96131.69
2023-01-30T11:15:50.820Z,96123.84
2023-01-30T11:19:06.667Z,96130.47
2023-01-30T11:21:11.322Z,96138.97
2023-01-30T11:23:43.032Z,96130.88
2023-01-30T11:26:20.972Z,96124.34
2023-01-30T11:28:49.153Z,96119.25
2023-01-30T11:31:38.989Z,96115.38
2023-01-30T11:34:16.448Z,96118.66
2023-01-30T11:36:47.046Z,96116.44
2023-01-30T11:39:29.414Z,96121.41
2023-01-30T11:42:05.702Z,96122.16
2023-01-30T11:44:35.113Z,96117.88
2023-01-30T11:47:04.913Z,96120.94
2023-01-30T11:49:45.899Z,96121.13
2023-01-30T11:52:18.684Z,96114.78
2023-01-30T11:54:47.977Z,96118.00
2023-01-30T11:57:19.923Z,96120.75
2023-01-30T11:59:50.429Z,96109.16
2023-01-30T12:02:24.360Z,96116.41
2023-01-30T12:04:55.579Z,96114.97
2023-01-30T12:07:25.530Z,96106.19
2023-01-30T12:09:54.169Z,96104.25
2023-01-30T12:12:30.409Z,96092.19
2023-01-30T12:15:05.940Z,96092.97
2023-01-30T12:17:40.421Z,96090.41
2023-01-30T12:20:18.808Z,96096.22
2023-01-30T12:22:53.863Z,96099.28
2023-01-30T12:25:25.220Z,96086.28
2023-01-30T12:30:33.474Z,96085.47
2023-01-30T12:35:48.304Z,96078.84
2023-01-30T12:38:32.536Z,96074.94
2023-01-30T12:41:13.252Z,96076.25
2023-01-30T12:43:54.432Z,96087.72
2023-01-30T12:46:38.479Z,96090.75
2023-01-30T12:49:31.513Z,96090.22
2023-01-30T12:52:13.999Z,96106.53
2023-01-30T12:54:51.727Z,96097.66
2023-01-30T12:57:27.306Z,96112.03
2023-01-30T13:00:14.521Z,96093.69
2023-01-30T13:02:59.198Z,96107.38
2023-01-30T13:05:38.712Z,96114.72
2023-01-30T13:08:24.911Z,96123.34
2023-01-30T13:11:00.986Z,96131.00
2023-01-30T13:13:36.074Z,96127.56
2023-01-30T13:16:15.496Z,96132.28
2023-01-30T13:18:50.375Z,96128.75
2023-01-30T13:21:24.496Z,96134.41
2023-01-30T13:24:05.449Z,96113.34
2023-01-30T13:26:36.026Z,96123.91
2023-01-30T13:29:12.961Z,96133.00
2023-01-30T13:31:51.659Z,96129.22
2023-01-30T13:34:29.140Z,96091.47
2023-01-30T13:37:01.321Z,96110.47
2023-01-30T13:39:36.197Z,96106.38
2023-01-30T13:42:17.573Z,96099.03
2023-01-30T13:44:45.855Z,96114.16
2023-01-30T13:47:27.701Z,96099.63
2023-01-30T13:50:20.642Z,96108.53
2023-01-30T13:52:54.829Z,96117.16
2023-01-30T13:55:29.377Z,96118.31
2023-01-30T13:58:03.786Z,96123.16
2023-01-30T14:00:32.554Z,96105.31
2023-01-30T14:03:25.206Z,96124.13
2023-01-30T14:06:04.618Z,96131.88
2023-01-30T14:08:39.803Z,96107.84
2023-01-30T14:11:29.006Z,96131.53
2023-01-30T14:14:02.761Z,96111.19
2023-01-30T14:16:45.526Z,96129.97
2023-01-30T14:19:36.480Z,96120.13
2023-01-30T14:22:18.211Z,96126.22
2023-01-30T14:24:45.790Z,96116.91
2023-01-30T14:27:31.932Z,96093.75
2023-01-30T14:29:59.526Z,96116.16
2023-01-30T14:32:39.798Z,96110.47
2023-01-30T14:35:28.753Z,96118.81
2023-01-30T14:38:19.154Z,96122.50
2023-01-30T14:41:06.705Z,96103.13
2023-01-30T14:43:39.914Z,96119.28
2023-01-30T14:46:27.188Z,96130.25
2023-01-30T14:49:00.907Z,96142.50
2023-01-30T14:51:35.069Z,96152.25
2023-01-30T14:54:10.063Z,96160.41
2023-01-30T14:56:44.258Z,96173.38
2023-01-30T14:59:22.795Z,96173.13
2023-01-30T15:02:22.396Z,96167.63
2023-01-30T15:04:57.199Z,96160.69
2023-01-30T15:07:30.618Z,96180.25
2023-01-30T15:10:01.861Z,96194.97
2023-01-30T15:12:50.565Z,96175.00
2023-01-30T15:15:25.963Z,96194.78
2023-01-30T15:18:18.114Z,96206.69
2023-01-30T15:21:05.708Z,96206.69
2023-01-30T15:24:05.371Z,96205.84
2023-01-30T15:26:46.155Z,96215.97
2023-01-30T15:29:53.637Z,96207.06
2023-01-30T15:32:22.712Z,96202.28
2023-01-30T15:34:52.145Z,96205.75
2023-01-30T15:37:37.000Z,96200.97
2023-01-30T15:40:22.511Z,96205.16
2023-01-30T15:42:52.373Z,96205.22
2023-01-30T15:45:29.755Z,96211.00
2023-01-30T15:48:11.686Z,96212.69
2023-01-30T15:50:39.507Z,96238.88
2023-01-30T15:53:15.201Z,96230.50
2023-01-30T15:55:45.617Z,96246.22
2023-01-30T15:58:17.022Z,96242.47
2023-01-30T16:00:47.490Z,96236.78
2023-01-30T16:03:19.118Z,96252.75
2023-01-30T16:05:50.893Z,96268.00
2023-01-30T16:08:23.875Z,96289.16
2023-01-30T16:10:53.402Z,96278.19
2023-01-30T16:13:23.209Z,96273.56
2023-01-30T16:15:57.642Z,96270.34
2023-01-30T16:18:32.257Z,96275.59
2023-01-30T16:21:04.596Z,96278.47
2023-01-30T16:23:36.426Z,96271.94
2023-01-30T16:26:08.432Z,96290.66
2023-01-30T16:28:36.491Z,96291.88
2023-01-30T16:31:06.610Z,96294.06
2023-01-30T16:33:37.031Z,96288.19
2023-01-30T16:36:06.648Z,96299.84
2023-01-30T16:38:38.665Z,96300.25
2023-01-30T16:41:07.578Z,96291.66
2023-01-30T16:43:35.399Z,96297.91
2023-01-30T16:46:46.029Z,96307.59
2023-01-30T16:49:18.920Z,96322.84
2023-01-30T16:51:47.163Z,96308.66
2023-01-30T16:54:21.861Z,96315.78
2023-01-30T16:56:54.590Z,96318.66
2023-01-30T16:59:28.073Z,96326.00
2023-01-30T17:01:57.080Z,96337.50
2023-01-30T17:04:26.941Z,96328.94
2023-01-30T17:06:57.380Z,96338.44
2023-01-30T17:09:45.886Z,96340.53
2023-01-30T17:12:38.416Z,96330.25
2023-01-30T17:15:29.922Z,96316.00
2023-01-30T17:17:57.603Z,96333.00
2023-01-30T17:20:28.737Z,96335.78
2023-01-30T17:23:02.107Z,96330.50
2023-01-30T17:25:35.708Z,96323.13
2023-01-30T17:28:06.050Z,96339.16
2023-01-30T17:30:33.553Z,96354.66
2023-01-30T17:33:01.139Z,96344.13
2023-01-30T17:35:28.727Z,96356.00
2023-01-30T17:38:04.778Z,96366.03
2023-01-30T17:40:35.112Z,96368.75
2023-01-30T17:43:03.939Z,96355.06
2023-01-30T17:45:31.554Z,96352.06
2023-01-30T17:47:59.015Z,96358.63
2023-01-30T17:50:28.321Z,96383.16
2023-01-30T17:52:55.823Z,96379.38
2023-01-30T17:55:23.531Z,96375.69
2023-01-30T17:57:51.037Z,96393.19
2023-01-30T18:00:22.545Z,96395.97
2023-01-30T18:02:50.452Z,96407.59
2023-01-30T18:05:18.011Z,96412.44
2023-01-30T18:07:45.538Z,96419.56
2023-01-30T18:10:15.290Z,96404.81
2023-01-30T18:12:42.906Z,96393.25
2023-01-30T18:15:13.289Z,96400.63
2023-01-30T18:17:47.153Z,96402.59
2023-01-30T18:20:17.192Z,96403.47
2023-01-30T18:22:44.870Z,96402.41
2023-01-30T18:25:13.844Z,96407.44
2023-01-30T18:27:43.711Z,96395.13
2023-01-30T18:30:12.899Z,96414.56
2023-01-30T18:32:51.982Z,96413.94
2023-01-30T18:35:20.243Z,96425.88
2023-01-30T18:37:47.726Z,96434.97
2023-01-30T18:40:15.402Z,96436.13
2023-01-30T18:42:42.913Z,96445.97
2023-01-30T18:45:10.918Z,96429.13
2023-01-30T18:47:38.368Z,96445.47
2023-01-30T18:50:07.876Z,96442.34
2023-01-30T18:52:35.335Z,96452.41
2023-01-30T18:55:03.049Z,96449.97
2023-01-30T18:57:30.537Z,96447.94
2023-01-30T18:59:57.991Z,96465.06
2023-01-30T19:02:25.474Z,96461.72
2023-01-30T19:04:52.998Z,96461.91
2023-01-30T19:07:21.797Z,96471.19
2023-01-30T19:09:49.287Z,96445.56
2023-01-30T19:12:34.676Z,96458.78
2023-01-30T19:15:03.350Z,96464.41
2023-01-30T19:17:30.989Z,96471.06
2023-01-30T19:19:59.882Z,96489.25
2023-01-30T19:22:28.861Z,96490.94
2023-01-30T19:24:56.331Z,96473.59
2023-01-30T19:27:23.774Z,96475.31
2023-01-30T19:29:51.247Z,96477.00
2023-01-30T19:32:18.711Z,96494.34
2023-01-30T19:34:46.213Z,96486.81
2023-01-30T19:37:13.665Z,96493.13
2023-01-30T19:39:42.451Z,96499.25
2023-01-30T19:42:09.928Z,96501.66
2023-01-30T19:44:37.725Z,96512.88
2023-01-30T19:47:05.276Z,96510.97
2023-01-30T19:49:35.679Z,96508.47
2023-01-30T19:52:03.537Z,96510.66
2023-01-30T19:54:31.256Z,96508.16
2023-01-30T19:57:00.177Z,96498.25
2023-01-30T19:59:27.677Z,96496.91
2023-01-30T20:01:55.227Z,96527.88
2023-01-30T20:04:23.498Z,96513.66
2023-01-30T20:06:51.007Z,96503.38
2023-01-30T20:09:19.149Z,96532.50
2023-01-30T20:11:46.633Z,96534.50
2023-01-30T20:14:15.459Z,96529.66
2023-01-30T20:16:42.913Z,96519.31
2023-01-30T20:19:14.346Z,96537.53
2023-01-30T20:21:41.950Z,96530.81
2023-01-30T20:24:11.968Z,96546.13
2023-01-30T20:26:40.300Z,96532.47
2023-01-30T20:29:09.317Z,96535.19
2023-01-30T20:31:39.478Z,96552.72
2023-01-30T20:34:09.331Z,96549.28
2023-01-30T20:36:36.799Z,96549.69
2023-01-30T20:39:06.417Z,96559.41
2023-01-30T20:41:36.542Z,96559.31
2023-01-30T20:44:05.366Z,96557.22
2023-01-30T20:46:38.742Z,96556.59
2023-01-30T20:49:08.789Z,96541.94
2023-01-30T20:51:36.244Z,96558.06
2023-01-30T20:54:05.601Z,96541.94
2023-01-30T20:56:34.890Z,96558.19
2023-01-30T20:59:02.530Z,96545.09
2023-01-30T21:01:30.368Z,96552.84
2023-01-30T21:03:58.043Z,96548.88
2023-01-30T21:06:37.364Z,96553.06
2023-01-30T21:09:15.217Z,96565.19
2023-01-30T21:11:42.743Z,96562.69
2023-01-30T21:14:10.260Z,96562.59
2023-01-30T21:16:38.584Z,96562.88
2023-01-30T21:19:08.493Z,96566.56
2023-01-30T21:21:40.137Z,96566.03
2023-01-30T21:24:09.298Z,96553.88
2023-01-30T21:26:39.309Z,96574.22
2023-01-30T21:29:08.297Z,96574.81
2023-01-30T21:31:37.698Z,96575.69
2023-01-30T21:34:05.928Z,96579.44
2023-01-30T21:36:33.603Z,96582.19
2023-01-30T21:39:20.393Z,96580.72
2023-01-30T21:42:05.520Z,96590.34
2023-01-30T21:44:37.064Z,96577.66
2023-01-30T21:47:05.317Z,96591.19
2023-01-30T21:49:33.795Z,96579.88
2023-01-30T21:52:01.282Z,96598.09
2023-01-30T21:54:30.141Z,96590.03
2023-01-30T21:56:57.640Z,96600.50
2023-01-30T21:59:25.188Z,96590.97
2023-01-30T22:01:52.653Z,96597.25
2023-01-30T22:04:20.104Z,96596.75
2023-01-30T22:06:47.538Z,96592.66
2023-01-30T22:09:16.163Z,96589.31
2023-01-30T22:11:46.085Z,96608.78
2023-01-30T22:14:14.582Z,96605.09
2023-01-30T22:16:42.827Z,96600.19
2023-01-30T22:19:11.479Z,96594.53
2023-01-30T22:21:40.597Z,96604.78
2023-01-30T22:24:11.573Z,96599.03
2023-01-30T22:26:39.608Z,96586.16
2023-01-30T22:29:08.673Z,96598.09
2023-01-30T22:31:40.395Z,96591.63
2023-01-30T22:34:08.882Z,96594.75
2023-01-30T22:36:37.476Z,96596.84
2023-01-30T22:39:05.988Z,96602.09
2023-01-30T22:41:36.261Z,96610.69
2023-01-30T22:44:05.631Z,96614.63
2023-01-30T22:46:36.425Z,96608.13
2023-01-30T22:49:06.268Z,96604.78
2023-01-30T22:51:36.159Z,96616.94
2023-01-30T22:54:05.666Z,96617.88
2023-01-30T22:56:38.347Z,96615.06
2023-01-30T22:59:07.166Z,96629.06
2023-01-30T23:01:38.226Z,96613.38
2023-01-30T23:04:07.643Z,96623.66
2023-01-30T23:06:36.794Z,96628.66
2023-01-30T23:09:06.141Z,96619.34
2023-01-30T23:11:35.780Z,96621.94
2023-01-30T23:14:07.518Z,96626.38
2023-01-30T23:16:37.925Z,96614.03
2023-01-30T23:19:05.432Z,96611.47
2023-01-30T23:21:37.922Z,96615.38
2023-01-30T23:24:08.232Z,96605.63
2023-01-30T23:26:38.132Z,96624.28
2023-01-30T23:29:08.405Z,96620.28
2023-01-30T23:31:38.036Z,96630.34
2023-01-30T23:34:07.593Z,96619.44
2023-01-30T23:36:35.493Z,96619.16
2023-01-30T23:39:02.934Z,96624.56
2023-01-30T23:41:32.207Z,96618.41
2023-01-30T23:44:00.905Z,96611.06
2023-01-30T23:46:31.955Z,96629.50
2023-01-30T23:49:02.515Z,96637.47
2023-01-30T23:51:32.210Z,96628.47
2023-01-30T23:54:00.232Z,96617.44
2023-01-30T23:56:30.049Z,96626.78
2023-01-30T23:58:57.803Z,96627.44
